Antigonish, Canada
Current Conditions -  °F | °C
As of 6:00 PM on Thursday 23 Oct 2014 (Local Time) from CYPD Reporting Station
Overcast Overcast  
Wind Chill: 52°   Ceiling: 1500
Heat Index: 52°   Visibility: 9mi
Dew Point: 48°   Wind: 17mph
Humidity: 88%   Direction: 70°ENE
Pressure: 29.98"   Gusts: 28mph
Location:  45.62°N, 61.99°W
Report Text: CYPD 232100Z AUTO 07015G24KT 9SM BKN015 OVC130 11/09 A2998 RMK SLP156
Loading
Personal Weather Stations






























Interactive Weather Map
Tropical Storm Tracking
New forecast layout! Learn more

10-Day Weather Forecast

Advertisements
Track Severe Weather on mobile